KVNY/VNY METAR and TAF weather

Enter ICAO airport designator
Station Type Date Time Source
KVNY METAR 2019/06/26 05:51 UTC NOAA

KVNY 260551Z AUTO 17004KT 10SM OVC017 18/14 A2993 RMK AO2 SLP129 T01780139 10222 20172 51015


Station Type Date Time Source
KVNY Decoded METAR 2019/06/26 05:51 UTC NOAA

VAN NUYS AIRPORT, CA, United States (KVNY) 34-13N 118-29W 245M
Jun 26, 2019 - 01:51 AM EDT / 2019.06.26 0551 UTC
Wind: from the S (170 degrees) at 5 MPH (4 KT):0
Visibility: 10 mile(s):0
Sky conditions: overcast
Temperature: 64.0 F (17.8 C)
Dew Point: 57.0 F (13.9 C)
Relative Humidity: 77%
Pressure (altimeter): 29.93 in. Hg (1013 hPa)
Pressure tendency: 0.04 inches (1.5 hPa) higher than three hours ago
ob: KVNY 260551Z AUTO 17004KT 10SM OVC017 18/14 A2993 RMK AO2 SLP129 T01780139 10222 20172 51015
cycle: 6

Station Type Date Time Source
KVNY TAF 2019/06/26 06:40 UTC NOAA

TAF KVNY 260538Z 2606/2706 14005KT P6SM BKN012
FM260900 VRB03KT 5SM BR OVC009
FM261100 VRB03KT 5SM -DZ BR SCT007 OVC010
FM261500 VRB03KT P6SM OVC012
FM261900 15007KT P6SM BKN018
FM262100 15009KT P6SM SCT025
FM270400 VRB03KT P6SM SKC

Example: see airport list